Time;durP1;ratioP1;P1;durP2;ratioP2;P2;SDS_P1;SDS_P2;PMS_P1;PMS_P2;Temp;Humidity;BMP_temperature;BMP_pressure;BME280_temperature;BME280_humidity;BME280_pressure;Samples;Min_cycle;Max_cycle;Signal;HPM_P1;HPM_P2
2023/01/14 00:02:02;;;;;;;24.67;2.88;;;9.00;99.90;;;;;;5028419;28;20032;-69
2023/01/14 00:04:28;;;;;;;28.77;3.50;;;9.00;99.90;;;;;;5028662;28;20025;-68
2023/01/14 00:06:53;;;;;;;19.25;3.33;;;9.10;99.90;;;;;;5027011;28;20033;-69
2023/01/14 00:09:19;;;;;;;20.85;2.35;;;9.10;99.90;;;;;;5026078;28;20079;-69
2023/01/14 00:11:51;;;;;;;32.30;6.65;;;9.20;99.90;;;;;;5025891;28;20107;-70
2023/01/14 00:14:21;;;;;;;24.92;4.13;;;9.20;99.90;;;;;;5025781;28;20385;-70
2023/01/14 00:16:48;;;;;;;29.27;5.72;;;9.20;99.90;;;;;;5026116;28;20061;-67
2023/01/14 00:19:15;;;;;;;25.58;5.80;;;9.20;99.90;;;;;;5028451;28;20045;-69
2023/01/14 00:21:43;;;;;;;24.60;5.20;;;9.20;99.90;;;;;;5028883;28;20021;-69
2023/01/14 00:24:13;;;;;;;25.88;4.65;;;9.30;99.90;;;;;;5023557;28;20029;-69
2023/01/14 00:26:39;;;;;;;31.55;4.82;;;9.30;99.90;;;;;;5028194;28;20104;-68
2023/01/14 00:29:06;;;;;;;27.83;5.63;;;9.40;99.90;;;;;;5025548;28;20550;-68
2023/01/14 00:31:32;;;;;;;19.42;4.03;;;9.40;99.90;;;;;;5029304;28;20436;-69
2023/01/14 00:33:59;;;;;;;24.30;3.58;;;9.40;99.90;;;;;;5026551;28;20037;-68
2023/01/14 00:36:26;;;;;;;27.77;5.25;;;9.50;99.90;;;;;;5028915;28;20022;-68
2023/01/14 00:38:53;;;;;;;26.02;4.70;;;9.50;99.90;;;;;;5023970;28;20048;-70
2023/01/14 00:41:21;;;;;;;21.58;3.20;;;9.40;99.90;;;;;;5028557;28;20518;-68
2023/01/14 00:43:50;;;;;;;26.33;4.28;;;9.50;99.90;;;;;;5027542;28;20025;-67
2023/01/14 00:46:21;;;;;;;26.50;4.43;;;9.40;99.90;;;;;;5029677;28;20246;-69
2023/01/14 00:48:47;;;;;;;32.47;6.63;;;9.40;99.90;;;;;;5019511;28;20029;-69
2023/01/14 00:51:14;;;;;;;30.08;4.38;;;9.40;99.90;;;;;;5023733;28;20022;-69
2023/01/14 00:53:41;;;;;;;20.65;4.05;;;9.40;99.90;;;;;;5024469;28;20548;-69
2023/01/14 00:56:08;;;;;;;26.20;3.30;;;9.50;99.90;;;;;;5025035;28;20533;-68
2023/01/14 00:58:34;;;;;;;24.17;3.15;;;9.50;99.90;;;;;;5024955;28;20041;-68
2023/01/14 01:01:00;;;;;;;33.08;4.93;;;9.50;99.90;;;;;;5024174;28;20040;-68
2023/01/14 01:03:26;;;;;;;17.70;3.42;;;9.50;99.90;;;;;;5014919;28;20034;-68
2023/01/14 01:05:52;;;;;;;20.55;3.13;;;9.50;99.90;;;;;;5020229;28;20029;-69
2023/01/14 01:08:20;;;;;;;15.75;2.70;;;9.50;99.90;;;;;;5016194;28;20478;-68
2023/01/14 01:10:48;;;;;;;23.83;4.70;;;9.50;99.90;;;;;;5018444;28;20036;-69
2023/01/14 01:13:14;;;;;;;28.73;4.68;;;9.50;99.90;;;;;;5027329;28;20029;-68
2023/01/14 01:15:41;;;;;;;19.42;3.00;;;9.40;99.90;;;;;;5020570;28;20037;-68
2023/01/14 01:18:08;;;;;;;25.40;4.43;;;9.40;99.90;;;;;;5018229;28;20041;-68
2023/01/14 01:20:36;;;;;;;25.13;3.90;;;9.40;99.90;;;;;;5022692;28;20026;-68
2023/01/14 01:23:02;;;;;;;29.83;3.25;;;9.30;99.90;;;;;;5020452;28;20581;-68
2023/01/14 01:25:28;;;;;;;19.38;4.10;;;9.30;99.90;;;;;;5018817;28;20033;-69
2023/01/14 01:27:55;;;;;;;26.95;3.40;;;9.30;99.90;;;;;;5021856;28;20029;-68
2023/01/14 01:30:22;;;;;;;20.73;4.32;;;9.30;99.90;;;;;;5023907;28;20029;-69
2023/01/14 01:32:47;;;;;;;19.00;3.60;;;9.30;99.90;;;;;;5015345;28;20030;-70
2023/01/14 01:35:13;;;;;;;37.88;5.10;;;9.40;99.90;;;;;;5025506;28;20052;-67
2023/01/14 01:37:39;;;;;;;19.90;3.47;;;9.40;99.90;;;;;;5030275;28;20026;-69
2023/01/14 01:40:06;;;;;;;19.27;2.70;;;9.40;99.90;;;;;;5023815;28;20467;-69
2023/01/14 01:42:34;;;;;;;20.90;3.55;;;9.40;99.90;;;;;;5029656;28;20083;-68
2023/01/14 01:45:27;;;;;;;17.85;3.05;;;9.40;99.90;;;;;;5026604;28;20030;-69
2023/01/14 01:48:04;;;;;;;26.75;3.85;;;9.30;99.90;;;;;;5025830;28;20049;-69
2023/01/14 01:50:30;;;;;;;24.25;3.65;;;9.30;99.90;;;;;;5031714;28;20040;-70
2023/01/14 01:52:57;;;;;;;20.67;4.10;;;9.30;99.90;;;;;;5027910;28;20025;-70
2023/01/14 01:55:23;;;;;;;33.83;5.03;;;9.30;99.90;;;;;;5019377;28;20103;-70
2023/01/14 01:57:55;;;;;;;18.48;3.45;;;9.30;99.90;;;;;;5023605;28;20045;-70
2023/01/14 02:00:25;;;;;;;12.70;2.67;;;9.30;99.90;;;;;;5026003;28;20412;-71
2023/01/14 02:02:59;;;;;;;18.98;2.83;;;9.30;99.90;;;;;;5029127;28;20385;-71
2023/01/14 02:05:25;;;;;;;23.30;2.53;;;9.20;99.90;;;;;;5030806;28;20044;-71
2023/01/14 02:07:51;;;;;;;26.60;2.90;;;9.30;99.90;;;;;;5018708;28;20022;-72
2023/01/14 02:10:18;;;;;;;23.27;3.70;;;9.20;99.90;;;;;;5016970;28;20045;-72
2023/01/14 02:13:28;;;;;;;19.95;2.20;;;9.30;99.90;;;;;;5022444;28;20060;-73
2023/01/14 02:16:06;;;;;;;16.30;2.65;;;9.30;99.90;;;;;;4969650;28;20038;-73
2023/01/14 02:18:54;;;;;;;23.52;3.42;;;9.30;99.90;;;;;;4966339;28;20042;-75
2023/01/14 02:21:25;;;;;;;15.15;2.67;;;9.30;99.90;;;;;;4964510;28;20503;-76
2023/01/14 02:24:27;;;;;;;24.83;3.05;;;9.30;99.90;;;;;;4958955;28;20097;-79
2023/01/14 02:27:22;;;;;;;19.45;2.33;;;9.30;99.90;;;;;;4969837;28;20077;-78
2023/01/14 02:29:50;;;;;;;13.18;1.80;;;9.30;99.90;;;;;;4969581;28;20037;-75
2023/01/14 02:32:58;;;;;;;18.58;2.45;;;9.30;99.90;;;;;;4968022;28;20134;-78
2023/01/14 02:35:32;;;;;;;15.02;2.20;;;9.30;99.90;;;;;;4895394;29;20041;-76
2023/01/14 02:38:07;;;;;;;15.30;2.05;;;9.30;99.90;;;;;;4887252;29;20493;-78
2023/01/14 02:41:12;;;;;;;13.98;1.90;;;9.20;99.90;;;;;;4899360;29;20036;-78
2023/01/14 02:44:07;;;;;;;11.25;1.55;;;9.10;99.90;;;;;;4883235;29;20092;-78
2023/01/14 02:46:50;;;;;;;15.98;3.42;;;9.10;99.90;;;;;;4916172;28;20043;-77
2023/01/14 02:49:26;;;;;;;11.75;1.67;;;9.00;99.90;;;;;;4947986;29;20034;-78
2023/01/14 02:51:55;;;;;;;19.00;3.90;;;9.00;99.90;;;;;;4932288;28;20161;-77
2023/01/14 02:54:21;;;;;;;16.23;2.13;;;9.00;99.90;;;;;;4951187;28;20082;-79
2023/01/14 02:56:48;;;;;;;12.75;1.65;;;9.00;99.90;;;;;;4952113;28;20035;-78
2023/01/14 02:59:33;;;;;;;15.10;1.98;;;9.00;99.90;;;;;;4949230;28;20047;-81
2023/01/14 03:02:23;;;;;;;12.00;2.72;;;9.00;99.90;;;;;;4934692;29;20468;-81
2023/01/14 03:05:21;;;;;;;15.07;2.15;;;9.10;99.90;;;;;;4948832;29;20043;-79
2023/01/14 03:08:20;;;;;;;11.13;1.40;;;9.20;99.90;;;;;;4946315;28;20535;-80
2023/01/14 03:10:55;;;;;;;7.43;1.63;;;9.20;99.90;;;;;;4950409;29;20078;-81
2023/01/14 03:13:25;;;;;;;16.15;3.85;;;9.20;99.90;;;;;;5009902;28;20102;-81
2023/01/14 03:16:03;;;;;;;16.25;2.15;;;9.30;99.90;;;;;;5030286;28;20167;-81
2023/01/14 03:18:50;;;;;;;12.43;1.40;;;9.30;99.90;;;;;;5029138;28;20037;-80
2023/01/14 03:21:23;;;;;;;16.70;2.20;;;9.30;99.90;;;;;;5028314;28;20032;-80
2023/01/14 03:24:24;;;;;;;14.45;1.60;;;9.30;99.90;;;;;;5016631;28;20022;-82
2023/01/14 03:26:52;;;;;;;7.40;1.40;;;9.30;99.90;;;;;;5015532;28;20496;-81
2023/01/14 03:29:26;;;;;;;9.38;1.70;;;9.30;99.90;;;;;;5028843;28;20030;-80
2023/01/14 03:32:18;;;;;;;11.77;2.03;;;9.30;99.90;;;;;;5025451;28;20025;-82
2023/01/14 03:34:49;;;;;;;12.80;2.00;;;9.30;99.90;;;;;;5025100;28;20029;-80
2023/01/14 03:37:19;;;;;;;17.75;2.20;;;9.30;99.90;;;;;;5012400;28;20022;-81
2023/01/14 03:39:47;;;;;;;14.60;2.47;;;9.30;99.90;;;;;;5029316;28;20030;-81
2023/01/14 03:42:20;;;;;;;12.98;2.63;;;9.30;99.90;;;;;;5022481;28;20018;-79
2023/01/14 03:45:10;;;;;;;12.98;2.05;;;9.30;99.90;;;;;;5019491;28;20075;-82
2023/01/14 03:47:37;;;;;;;10.80;2.05;;;9.30;99.90;;;;;;5025764;28;20068;-80
2023/01/14 03:50:10;;;;;;;10.55;2.30;;;9.40;99.90;;;;;;5028298;28;20029;-80
2023/01/14 03:52:39;;;;;;;12.10;1.52;;;9.30;99.90;;;;;;5030151;28;20171;-82
2023/01/14 03:55:32;;;;;;;9.00;1.60;;;9.40;99.90;;;;;;5020218;28;20061;-82
2023/01/14 03:58:12;;;;;;;11.68;1.73;;;9.40;99.90;;;;;;5023516;28;20125;-82
2023/01/14 04:00:57;;;;;;;12.57;2.17;;;9.40;99.90;;;;;;5025984;28;20041;-82
2023/01/14 04:03:24;;;;;;;15.25;2.35;;;9.40;99.90;;;;;;5017143;28;20022;-83
2023/01/14 04:05:52;;;;;;;11.98;2.40;;;9.40;99.90;;;;;;5031275;28;20041;-82
2023/01/14 04:08:20;;;;;;;16.13;2.35;;;9.40;99.90;;;;;;5028661;28;20030;-83
2023/01/14 04:10:46;;;;;;;14.48;2.03;;;9.40;99.90;;;;;;5029225;28;20026;-82
2023/01/14 04:16:01;;;;;;;7.53;1.42;;;9.40;99.90;;;;;;5029925;28;20040;-82
2023/01/14 04:18:27;;;;;;;18.48;3.72;;;9.40;99.90;;;;;;5028040;28;20112;-81
2023/01/14 04:20:52;;;;;;;13.40;1.55;;;9.40;99.90;;;;;;5025550;28;20129;-77
2023/01/14 04:23:18;;;;;;;20.50;2.03;;;9.40;99.90;;;;;;5028654;28;20362;-78
2023/01/14 04:25:44;;;;;;;13.68;1.45;;;9.50;99.90;;;;;;5027894;28;20036;-79
2023/01/14 04:28:16;;;;;;;13.02;1.65;;;9.50;99.90;;;;;;5024262;28;20025;-78
2023/01/14 04:30:42;;;;;;;;;;;9.50;99.90;;;;;;5025018;28;20029;-79
2023/01/14 04:33:08;;;;;;;12.07;2.08;;;9.60;99.90;;;;;;5042089;28;19916;-80
2023/01/14 04:35:34;;;;;;;19.70;2.10;;;9.60;99.90;;;;;;5027091;28;20026;-79
2023/01/14 04:38:00;;;;;;;14.65;2.45;;;9.60;99.90;;;;;;5027997;28;20043;-80
2023/01/14 04:40:26;;;;;;;8.00;1.50;;;9.60;99.90;;;;;;5029666;28;20025;-80
2023/01/14 04:42:51;;;;;;;13.93;2.42;;;9.70;99.90;;;;;;5024073;28;20037;-82
2023/01/14 04:45:17;;;;;;;16.27;1.77;;;9.70;99.90;;;;;;5029324;28;20013;-83
2023/01/14 04:47:43;;;;;;;9.23;1.98;;;9.80;99.90;;;;;;5022595;28;20085;-84
2023/01/14 04:50:31;;;;;;;19.52;2.50;;;9.80;99.90;;;;;;5018629;28;20060;-82
2023/01/14 04:53:09;;;;;;;14.38;2.05;;;9.80;99.90;;;;;;5015953;28;20497;-85
2023/01/14 04:55:39;;;;;;;13.07;2.00;;;9.80;99.90;;;;;;5023773;28;20025;-84
2023/01/14 04:58:07;;;;;;;19.25;2.30;;;9.80;99.90;;;;;;5028333;28;20076;-83
2023/01/14 05:00:33;;;;;;;18.27;2.47;;;9.80;99.90;;;;;;5030432;28;20033;-83
2023/01/14 05:03:04;;;;;;;19.48;2.70;;;9.80;99.90;;;;;;5031743;28;20025;-82
2023/01/14 05:05:30;;;;;;;23.05;3.03;;;9.90;99.90;;;;;;5019139;28;20096;-82
2023/01/14 05:07:55;;;;;;;21.52;3.13;;;9.90;99.90;;;;;;5029126;28;20033;-84
2023/01/14 05:10:21;;;;;;;18.30;4.20;;;9.90;99.90;;;;;;5029966;28;20021;-82
2023/01/14 05:12:56;;;;;;;27.42;3.55;;;9.90;99.90;;;;;;5030925;28;20060;-80
2023/01/14 05:15:26;;;;;;;31.20;3.30;;;9.90;99.90;;;;;;5019367;28;20087;-78
2023/01/14 05:17:53;;;;;;;20.02;2.80;;;9.80;99.90;;;;;;5026763;28;20033;-77
2023/01/14 05:20:19;;;;;;;26.58;3.92;;;9.80;99.90;;;;;;5019440;28;20393;-81
2023/01/14 05:22:45;;;;;;;25.95;3.13;;;9.80;99.90;;;;;;5028834;28;20497;-81
2023/01/14 05:25:11;;;;;;;30.80;4.07;;;10.00;99.90;;;;;;5027513;28;20041;-82
2023/01/14 05:27:37;;;;;;;37.08;3.08;;;10.00;99.90;;;;;;5032354;28;20437;-81
2023/01/14 05:30:04;;;;;;;29.42;3.17;;;10.00;99.90;;;;;;5028179;28;20030;-81
2023/01/14 05:32:33;;;;;;;28.08;3.28;;;10.00;99.90;;;;;;5029907;28;20026;-80
2023/01/14 05:34:59;;;;;;;28.23;3.85;;;9.90;99.90;;;;;;5027307;28;20088;-80
2023/01/14 05:37:25;;;;;;;32.88;3.90;;;9.90;99.90;;;;;;5034787;28;20018;-79
2023/01/14 05:39:50;;;;;;;33.22;3.60;;;9.90;99.90;;;;;;5020434;28;20175;-80
2023/01/14 05:48:06;;;;;;;24.48;3.80;;;9.80;99.90;;;;;;4966891;28;20106;-80
2023/01/14 05:50:32;;;;;;;30.00;4.78;;;9.90;99.90;;;;;;4973857;28;20435;-78
2023/01/14 05:52:58;;;;;;;35.45;4.40;;;9.80;99.90;;;;;;4971720;28;20038;-77
2023/01/14 05:55:24;;;;;;;28.25;3.55;;;9.80;99.90;;;;;;4963760;28;20094;-76
2023/01/14 05:57:50;;;;;;;24.33;3.97;;;9.80;99.90;;;;;;4970765;28;20035;-78
2023/01/14 06:08:28;;;;;;;40.15;4.30;;;9.70;99.90;;;;;;4962990;28;20052;-81
2023/01/14 06:10:54;;;;;;;31.02;3.60;;;9.70;99.90;;;;;;4969832;28;20114;-79
2023/01/14 06:13:22;;;;;;;30.05;3.47;;;9.60;99.90;;;;;;4971779;28;20131;-80
2023/01/14 06:15:51;;;;;;;32.92;2.72;;;9.60;99.90;;;;;;4972480;28;20031;-79
2023/01/14 06:18:22;;;;;;;32.58;3.47;;;9.60;99.90;;;;;;4987442;28;20037;-80
2023/01/14 06:20:52;;;;;;;33.08;4.50;;;9.60;99.90;;;;;;5028673;28;20022;-80
2023/01/14 06:23:21;;;;;;;23.08;3.60;;;9.50;99.90;;;;;;5028910;28;20022;-84
2023/01/14 06:25:49;;;;;;;23.70;5.13;;;9.50;99.90;;;;;;5028541;28;20398;-84
2023/01/14 06:28:16;;;;;;;27.95;3.60;;;9.50;99.90;;;;;;5029549;28;20014;-86
2023/01/14 06:30:42;;;;;;;32.08;3.35;;;9.50;99.90;;;;;;5031052;28;20116;-84
2023/01/14 06:33:09;;;;;;;26.33;3.90;;;9.50;99.90;;;;;;5028361;28;20030;-84
2023/01/14 06:35:43;;;;;;;22.65;2.55;;;9.50;99.90;;;;;;5161783;22;20152;-84
2023/01/14 06:38:11;;;;;;;25.58;4.30;;;9.50;99.90;;;;;;5013047;28;20078;-83
2023/01/14 06:40:38;;;;;;;25.33;3.05;;;9.50;99.90;;;;;;5014941;28;20049;-85
2023/01/14 06:43:05;;;;;;;32.63;4.47;;;9.50;99.90;;;;;;5013503;28;20061;-86
2023/01/14 06:45:31;;;;;;;28.58;3.03;;;9.50;99.90;;;;;;5014664;28;20264;-84
2023/01/14 06:47:57;;;;;;;26.35;3.25;;;9.60;99.90;;;;;;5010982;28;20123;-82
2023/01/14 06:50:22;;;;;;;25.55;3.17;;;9.60;99.90;;;;;;5010700;28;20053;-81
2023/01/14 06:52:52;;;;;;;21.88;2.15;;;9.60;99.90;;;;;;5010678;28;20389;-78
2023/01/14 06:55:21;;;;;;;19.02;2.40;;;9.70;99.90;;;;;;5013754;28;20029;-82
2023/01/14 06:57:50;;;;;;;20.40;3.70;;;9.70;99.90;;;;;;5008900;28;20108;-83
2023/01/14 07:00:16;;;;;;;27.90;4.00;;;9.80;99.90;;;;;;5012090;28;20025;-77
2023/01/14 07:02:42;;;;;;;19.38;3.65;;;9.80;99.90;;;;;;5011734;28;20045;-76
2023/01/14 07:05:08;;;;;;;22.50;2.53;;;9.80;99.90;;;;;;5006314;28;20026;-78
2023/01/14 07:07:33;;;;;;;32.40;4.55;;;9.80;99.90;;;;;;5011371;28;20032;-79
2023/01/14 07:09:59;;;;;;;20.75;3.25;;;9.90;99.90;;;;;;5010667;28;20113;-83
2023/01/14 07:12:25;;;;;;;23.05;3.28;;;9.90;99.90;;;;;;5009349;28;20469;-83
2023/01/14 07:14:51;;;;;;;35.00;3.88;;;10.00;99.90;;;;;;5009157;28;20028;-81
2023/01/14 07:17:17;;;;;;;28.23;3.28;;;10.00;99.90;;;;;;5011484;28;20073;-81
2023/01/14 07:19:43;;;;;;;34.58;4.30;;;10.00;99.90;;;;;;5012195;28;20037;-80
2023/01/14 07:22:08;;;;;;;22.55;2.70;;;10.10;99.90;;;;;;5008655;28;20029;-81
2023/01/14 07:24:37;;;;;;;21.65;3.88;;;10.20;99.90;;;;;;5012334;28;20367;-83
2023/01/14 07:27:04;;;;;;;28.55;3.92;;;10.20;99.90;;;;;;5009593;28;20026;-79
2023/01/14 07:29:30;;;;;;;24.10;3.50;;;10.20;99.90;;;;;;5011223;28;20034;-80
2023/01/14 07:31:56;;;;;;;38.88;5.18;;;10.30;99.90;;;;;;5010451;28;20397;-82
2023/01/14 07:34:22;;;;;;;36.80;3.83;;;10.30;99.90;;;;;;5013310;28;20048;-86
2023/01/14 07:36:48;;;;;;;36.10;4.55;;;10.40;99.90;;;;;;5014444;28;20038;-84
2023/01/14 07:39:14;;;;;;;20.15;2.72;;;10.40;99.90;;;;;;5014841;28;20041;-86
2023/01/14 07:41:40;;;;;;;23.27;3.70;;;10.40;99.90;;;;;;5013139;28;20018;-84
2023/01/14 07:44:05;;;;;;;23.52;3.42;;;10.50;99.90;;;;;;5014529;28;20109;-81
2023/01/14 07:46:32;;;;;;;30.73;4.80;;;10.50;99.90;;;;;;5014315;28;20045;-82
2023/01/14 07:48:59;;;;;;;25.92;5.53;;;10.60;99.90;;;;;;5012131;28;20462;-88
2023/01/14 07:51:25;;;;;;;24.92;3.22;;;10.60;99.90;;;;;;5031694;28;20470;-84
2023/01/14 07:53:51;;;;;;;29.25;4.10;;;10.60;99.90;;;;;;5012702;28;20079;-84
2023/01/14 07:56:17;;;;;;;21.75;3.33;;;10.60;99.90;;;;;;5006927;28;20068;-84
2023/01/14 07:58:43;;;;;;;26.88;3.88;;;10.60;99.90;;;;;;5014395;28;20346;-85
2023/01/14 08:01:10;;;;;;;33.85;5.05;;;10.60;99.90;;;;;;5015909;28;20018;-83
2023/01/14 08:03:37;;;;;;;23.05;3.00;;;10.70;99.90;;;;;;5013755;28;20022;-85
2023/01/14 08:06:06;;;;;;;29.17;5.18;;;10.70;99.90;;;;;;5005774;28;20030;-83
2023/01/14 08:08:33;;;;;;;19.38;3.05;;;10.70;99.90;;;;;;5017160;28;20050;-84
2023/01/14 08:11:02;;;;;;;21.35;3.40;;;10.80;99.90;;;;;;5018551;28;20006;-85
2023/01/14 08:13:30;;;;;;;24.52;2.80;;;10.80;99.90;;;;;;5017463;28;20030;-84
2023/01/14 08:16:00;;;;;;;23.35;2.72;;;10.80;99.90;;;;;;5016934;28;20055;-87
2023/01/14 08:18:26;;;;;;;24.27;3.55;;;10.70;99.90;;;;;;5037015;28;20097;-84
2023/01/14 08:21:00;;;;;;;26.08;3.35;;;10.80;99.90;;;;;;5014307;28;20066;-84
2023/01/14 08:23:27;;;;;;;30.45;3.72;;;10.80;99.90;;;;;;5011310;28;20038;-78
2023/01/14 08:25:53;;;;;;;24.73;3.53;;;10.80;99.90;;;;;;5010471;28;20117;-83
2023/01/14 08:28:19;;;;;;;31.20;4.13;;;10.80;99.90;;;;;;5015753;28;20028;-84
2023/01/14 08:30:45;;;;;;;33.33;4.10;;;10.80;99.90;;;;;;5018714;28;20021;-85
2023/01/14 08:33:10;;;;;;;38.85;3.83;;;10.80;99.90;;;;;;5009561;28;20491;-87
2023/01/14 08:35:40;;;;;;;25.40;3.92;;;10.80;99.90;;;;;;5016196;28;20529;-87
2023/01/14 08:38:07;;;;;;;25.40;4.40;;;10.80;99.90;;;;;;5011660;28;20347;-84
2023/01/14 08:40:33;;;;;;;27.38;4.80;;;10.80;99.90;;;;;;5014523;28;20033;-87
2023/01/14 08:42:59;;;;;;;33.97;3.45;;;10.90;99.90;;;;;;5012372;28;20080;-81
2023/01/14 08:45:25;;;;;;;24.25;3.63;;;10.80;99.90;;;;;;5004324;28;20025;-84
2023/01/14 08:47:51;;;;;;;30.27;3.42;;;10.80;99.90;;;;;;5006941;28;20490;-81
2023/01/14 08:50:21;;;;;;;33.05;3.75;;;10.80;99.90;;;;;;5014245;28;20029;-83
2023/01/14 08:52:48;;;;;;;30.25;4.82;;;10.90;99.90;;;;;;5020769;28;20033;-83
2023/01/14 08:55:13;;;;;;;25.55;3.63;;;10.90;99.90;;;;;;5038837;28;20034;-84
2023/01/14 08:57:39;;;;;;;26.15;3.50;;;10.90;99.90;;;;;;5024638;28;20030;-84
2023/01/14 09:00:07;;;;;;;27.67;4.38;;;10.80;99.90;;;;;;4999928;28;20048;-83
2023/01/14 09:02:33;;;;;;;25.50;2.97;;;10.80;99.90;;;;;;5017498;28;20061;-83
2023/01/14 09:04:59;;;;;;;31.63;3.42;;;10.70;99.90;;;;;;5008324;28;20030;-83
2023/01/14 09:18:23;;;;;;;35.92;3.70;;;10.90;99.90;;;;;;5016088;28;20180;-82
2023/01/14 09:20:53;;;;;;;31.35;3.25;;;10.90;99.90;;;;;;5016188;28;20491;-84
2023/01/14 09:23:19;;;;;;;28.45;3.83;;;10.90;99.90;;;;;;5014925;28;20109;-84
2023/01/14 09:25:45;;;;;;;24.38;3.08;;;11.00;99.90;;;;;;5016173;28;20025;-85
2023/01/14 09:28:11;;;;;;;21.55;3.45;;;11.00;99.90;;;;;;5009197;28;20080;-84
2023/01/14 09:30:37;;;;;;;27.60;4.22;;;11.00;99.90;;;;;;5013084;28;20394;-82
2023/01/14 09:33:06;;;;;;;20.25;3.75;;;11.00;99.90;;;;;;5012510;28;20038;-82
2023/01/14 09:35:31;;;;;;;29.13;3.22;;;11.00;99.90;;;;;;5012247;28;20104;-80
2023/01/14 09:37:57;;;;;;;31.38;3.95;;;11.00;99.90;;;;;;5009418;28;20030;-79
2023/01/14 09:40:23;;;;;;;42.15;4.95;;;11.00;99.90;;;;;;5009676;28;20029;-80
2023/01/14 09:42:50;;;;;;;24.70;3.25;;;11.00;99.90;;;;;;5007074;28;20135;-77
2023/01/14 09:45:19;;;;;;;26.42;2.58;;;11.10;99.90;;;;;;5009745;28;20022;-78
2023/01/14 09:47:45;;;;;;;18.80;3.05;;;11.10;99.90;;;;;;5008726;28;20037;-78
2023/01/14 09:50:54;;;;;;;35.90;3.80;;;11.10;99.90;;;;;;5006702;28;20026;-78
2023/01/14 09:53:47;;;;;;;28.73;3.97;;;11.20;99.90;;;;;;4992435;28;20038;-75
2023/01/14 09:56:31;;;;;;;22.90;3.20;;;11.20;99.90;;;;;;5009707;28;20038;-78
2023/01/14 09:59:22;;;;;;;41.45;4.50;;;11.20;99.90;;;;;;5009289;28;20050;-81
2023/01/14 10:02:03;;;;;;;21.40;2.78;;;11.20;99.90;;;;;;5007790;28;20129;-73
2023/01/14 10:04:56;;;;;;;21.10;3.20;;;11.20;99.90;;;;;;5012272;28;20366;-84
2023/01/14 10:07:23;;;;;;;21.83;2.55;;;11.20;99.90;;;;;;5005264;28;20026;-82
2023/01/14 10:09:58;;;;;;;25.23;3.45;;;11.30;99.90;;;;;;5012744;28;20022;-81
2023/01/14 10:12:30;;;;;;;23.05;3.03;;;11.30;99.90;;;;;;5010106;28;20124;-78
2023/01/14 10:15:26;;;;;;;19.27;3.55;;;11.20;99.90;;;;;;5009988;28;20234;-80
2023/01/14 10:18:02;;;;;;;20.33;2.65;;;11.20;99.90;;;;;;5006553;28;20025;-77
2023/01/14 10:20:37;;;;;;;25.92;3.88;;;11.20;99.90;;;;;;5012248;28;20072;-78
2023/01/14 10:23:16;;;;;;;22.48;3.00;;;11.20;99.90;;;;;;5010797;28;20034;-76
2023/01/14 10:25:48;;;;;;;26.80;4.47;;;11.20;99.90;;;;;;5024941;28;20026;-75
2023/01/14 10:28:16;;;;;;;30.25;4.15;;;11.20;99.90;;;;;;5008790;28;20045;-76
2023/01/14 10:30:45;;;;;;;29.95;3.38;;;11.20;99.90;;;;;;5011941;28;20034;-76
2023/01/14 10:33:14;;;;;;;21.02;2.92;;;11.20;99.90;;;;;;5009625;28;20025;-76
2023/01/14 10:35:43;;;;;;;24.75;3.63;;;11.30;99.90;;;;;;5009074;28;20584;-75
2023/01/14 10:38:23;;;;;;;31.90;3.20;;;11.20;99.90;;;;;;5007831;28;20046;-75
2023/01/14 10:40:51;;;;;;;23.17;2.83;;;11.30;99.90;;;;;;5002186;28;20108;-74
2023/01/14 10:43:42;;;;;;;28.65;3.65;;;11.30;99.90;;;;;;5007499;28;20058;-77
2023/01/14 10:46:18;;;;;;;19.90;3.45;;;11.30;99.90;;;;;;5004164;28;21086;-75
2023/01/14 10:49:05;;;;;;;19.77;3.45;;;11.30;99.90;;;;;;5007530;28;20029;-76
2023/01/14 10:51:36;;;;;;;24.13;4.38;;;11.30;99.90;;;;;;5009868;28;20030;-77
2023/01/14 10:54:17;;;;;;;19.85;3.30;;;11.30;99.90;;;;;;5002947;28;20029;-76
2023/01/14 10:56:59;;;;;;;24.95;4.82;;;11.30;99.90;;;;;;5010961;28;20030;-76
2023/01/14 10:59:39;;;;;;;21.27;3.53;;;11.40;99.90;;;;;;5011016;28;20041;-78
2023/01/14 11:02:17;;;;;;;25.42;5.07;;;11.30;99.90;;;;;;5002577;28;20100;-77
2023/01/14 11:04:43;;;;;;;19.40;3.03;;;11.40;99.90;;;;;;5010550;28;20026;-76
2023/01/14 11:07:21;;;;;;;22.33;2.47;;;11.40;99.90;;;;;;5006813;28;20566;-77
2023/01/14 11:09:46;;;;;;;11.85;1.98;;;11.40;99.90;;;;;;5011440;28;20076;-78
2023/01/14 11:12:31;;;;;;;17.65;2.75;;;11.40;99.90;;;;;;5009999;28;20068;-77
2023/01/14 11:14:57;;;;;;;16.30;2.45;;;11.40;99.90;;;;;;5009708;28;20022;-77
2023/01/14 11:17:26;;;;;;;19.20;2.88;;;11.40;99.90;;;;;;5011285;28;20033;-76
2023/01/14 11:20:12;;;;;;;20.10;2.03;;;11.40;99.90;;;;;;5009507;28;20565;-78
2023/01/14 11:22:38;;;;;;;24.98;3.22;;;11.40;99.90;;;;;;5012090;28;20033;-78
2023/01/14 11:25:04;;;;;;;10.02;1.50;;;11.40;99.90;;;;;;5009851;28;20042;-78
2023/01/14 11:27:31;;;;;;;13.20;2.05;;;11.40;99.90;;;;;;5011733;28;20049;-76
2023/01/14 11:29:59;;;;;;;15.65;3.80;;;11.50;99.90;;;;;;5003230;28;20027;-77
2023/01/14 11:32:36;;;;;;;13.07;2.63;;;11.50;99.90;;;;;;5010187;28;20040;-76
2023/01/14 11:35:06;;;;;;;17.27;2.63;;;11.50;99.90;;;;;;5009380;28;20038;-76
2023/01/14 11:37:32;;;;;;;23.70;3.47;;;11.50;99.90;;;;;;5010648;28;20489;-77
2023/01/14 11:39:59;;;;;;;18.65;2.00;;;11.50;99.90;;;;;;5008478;28;20068;-76
2023/01/14 11:42:40;;;;;;;15.52;2.72;;;11.50;99.90;;;;;;5010631;28;20030;-76
2023/01/14 11:45:12;;;;;;;22.23;2.63;;;11.50;99.90;;;;;;5005239;28;20053;-77
2023/01/14 11:47:52;;;;;;;14.40;2.75;;;11.50;99.90;;;;;;5006096;28;20045;-75
2023/01/14 11:50:24;;;;;;;13.82;3.30;;;11.60;99.90;;;;;;5002748;28;20030;-77
2023/01/14 11:53:08;;;;;;;12.57;2.15;;;11.60;99.90;;;;;;5006163;28;20041;-75
2023/01/14 11:55:38;;;;;;;14.93;2.30;;;11.60;99.90;;;;;;5005465;28;20075;-79
2023/01/14 11:58:14;;;;;;;19.27;2.28;;;11.60;99.90;;;;;;4998186;28;20029;-76
2023/01/14 12:00:46;;;;;;;11.05;1.63;;;11.60;99.90;;;;;;5010306;28;20030;-76
2023/01/14 12:04:09;;;;;;;13.50;2.00;;;11.60;99.90;;;;;;5009993;28;20112;-75
2023/01/14 12:06:22;;;;;;;18.00;2.97;;;11.60;99.90;;;;;;5010620;28;20049;-78
2023/01/14 12:08:56;;;;;;;16.80;1.50;;;11.60;99.90;;;;;;5010470;28;20034;-75
2023/01/14 12:11:40;;;;;;;13.75;2.03;;;11.60;99.90;;;;;;5009306;28;20018;-77
2023/01/14 12:17:15;;;;;;;12.50;1.75;;;11.60;99.90;;;;;;5009127;28;20040;-79
2023/01/14 12:20:12;;;;;;;20.58;2.13;;;11.60;99.90;;;;;;5009933;28;20379;-75
2023/01/14 12:22:50;;;;;;;13.15;1.30;;;11.60;99.90;;;;;;5004187;28;20033;-82
2023/01/14 12:25:25;;;;;;;11.18;1.73;;;11.70;99.90;;;;;;5009538;28;20026;-82
2023/01/14 12:27:56;;;;;;;10.90;2.05;;;11.70;99.90;;;;;;5008051;28;20462;-87
2023/01/14 12:30:22;;;;;;;10.63;1.65;;;11.70;99.90;;;;;;5008313;28;20328;-83
2023/01/14 12:33:14;;;;;;;15.25;1.92;;;11.70;99.90;;;;;;5009993;28;20041;-75
2023/01/14 12:35:55;;;;;;;17.75;3.10;;;11.70;99.90;;;;;;5005205;28;20062;-79
2023/01/14 12:47:27;;;;;;;13.90;4.18;;;11.80;99.90;;;;;;5006654;28;20073;-82
2023/01/14 12:49:53;;;;;;;10.35;2.47;;;11.80;99.90;;;;;;5008272;28;20425;-78
2023/01/14 12:52:30;;;;;;;14.93;1.65;;;11.80;99.90;;;;;;5010161;28;20026;-70
2023/01/14 12:54:58;;;;;;;10.15;3.60;;;11.80;99.90;;;;;;5007454;28;20034;-70
2023/01/14 12:57:25;;;;;;;10.88;2.53;;;11.80;99.90;;;;;;5008583;28;20108;-70
2023/01/14 13:00:13;;;;;;;14.38;3.53;;;11.80;99.90;;;;;;5006439;28;20091;-71
2023/01/14 13:02:47;;;;;;;15.77;2.28;;;11.80;99.90;;;;;;5006786;28;20113;-70
2023/01/14 13:05:23;;;;;;;36.42;12.80;;;11.80;99.90;;;;;;5004843;28;20034;-68
2023/01/14 13:07:56;;;;;;;17.08;4.05;;;11.80;99.90;;;;;;5007701;28;20030;-67
2023/01/14 13:10:37;;;;;;;11.63;2.28;;;11.80;99.90;;;;;;5009420;28;20026;-70
2023/01/14 13:13:18;;;;;;;16.23;2.67;;;11.80;99.90;;;;;;4994093;28;20544;-71
2023/01/14 13:15:44;;;;;;;10.80;2.85;;;11.80;99.90;;;;;;5008427;28;20432;-70
2023/01/14 13:18:35;;;;;;;16.88;3.00;;;11.80;99.90;;;;;;5007462;28;20033;-70
2023/01/14 13:21:02;;;;;;;22.35;3.10;;;11.80;99.90;;;;;;5007251;28;20040;-70
2023/01/14 13:23:37;;;;;;;16.75;2.97;;;11.90;99.90;;;;;;5009443;28;20057;-70
2023/01/14 13:26:28;;;;;;;25.55;3.92;;;11.80;99.90;;;;;;5005852;28;20104;-65
2023/01/14 13:29:15;;;;;;;19.55;3.10;;;11.90;99.90;;;;;;4974381;28;20042;-66
2023/01/14 13:31:42;;;;;;;21.02;3.15;;;12.00;99.90;;;;;;5009620;28;20026;-68
2023/01/14 13:34:24;;;;;;;17.55;3.28;;;11.90;99.90;;;;;;5010848;28;20231;-67
2023/01/14 13:37:15;;;;;;;29.15;3.88;;;11.90;99.90;;;;;;5010613;28;20054;-66
2023/01/14 13:39:48;;;;;;;19.67;3.10;;;11.70;99.90;;;;;;5008469;28;20480;-67
2023/01/14 13:42:38;;;;;;;24.38;3.92;;;11.70;99.90;;;;;;5012651;28;20132;-67
2023/01/14 13:45:06;;;;;;;13.38;2.97;;;11.70;99.90;;;;;;5010460;28;20092;-66
2023/01/14 13:47:36;;;;;;;2.63;0.40;;;11.80;99.90;;;;;;5008531;28;20026;-66